Thunderstorms From: 21-05-2018 15:00 Until: 22-05-2018 15:00 warning for: Thunderstorms Level: Yellow info button

Although rather usual in this region, locally or potentially dangerous phenomena are expected. (such as local winds, summer thunderstorms, rising streams or high waves) Be aware and pay attention to the latest weather updates, especially if you carry out activities exposed to weather or close to a stream or shoreline. 


Meteo18 Weather Cam more information Meteo18 Weather Cam


warning for Thunderstorms more information blitzortung!


Rain radar more information rain snow radar


Visit our other weather sites:

Template documentation
and downloads

And another site



Weather Underground History page Text

Daily Summary for February 2, 2018 Units:  Metric    English   Both
« Previous Day
Next Day »
Daily Weekly Monthly Yearly Custom
  High: Low: Average:
Temperature: -17.8 °C -19.3 °C -17.1 °C
Dew Point: -17.8 °C -19.5 °C -17.7 °C
Humidity: Humidity % 72 % 92 %
Wind Speed: 0 km/h 0 km/h 4.5 km/h
Wind Gust: 0 km/h - -
Wind:- - WSW
Pressure: 0 hPa 34178.3 hPa -
Precipitation: 12.7 mm    
Historical Graphs
 
 
Tabular Data for February 2, 2018
Time Temperature Dew Point Pressure Wind Wind Speed Wind Gust Humidity Rainfall Rate (Hourly)
-17.8 °C -17.8 °C 0 hPa Calm     Humidity % 0 mm
00:01 -17.4 °C -17.8 °C 34178.3 hPa Calm   2.6 km/h 95 % 0 mm
00:07 -17.4 °C -17.8 °C 34178.3 hPa Calm   2.6 km/h 96 % 0 mm
00:13 -17.4 °C -17.7 °C 34178.3 hPa Calm   2.6 km/h 96 % 0 mm
00:19 -17.4 °C -17.8 °C 34188.4 hPa WNW 2.3 km/h 2.6 km/h 96 % 0 mm
00:25 -17.4 °C -17.8 °C 34188.4 hPa Calm   2.6 km/h 96 % 0 mm
00:31 -17.3 °C -17.7 °C 34188.4 hPa Calm   2.6 km/h 96 % 0 mm
00:37 -17.3 °C -17.6 °C 34188.4 hPa Calm     96 % 0 mm
00:43 -17.4 °C -17.8 °C 34188.4 hPa Calm   2.6 km/h 95 % 0 mm
00:49 -17.4 °C -17.8 °C 34188.4 hPa SSE 2.3 km/h 2.6 km/h 95 % 0 mm
00:55 -17.5 °C -17.9 °C 34188.4 hPa Calm   2.6 km/h 95 % 0 mm
01:02 -17.6 °C -17.9 °C 34188.4 hPa Calm     96 % 0 mm
01:08 -17.6 °C -18 °C 34188.4 hPa Calm   2.6 km/h 95 % 0 mm
01:14 -17.7 °C -18.1 °C 34188.4 hPa ESE 2.3 km/h 5.1 km/h 95 % 0 mm
01:20 -17.7 °C -18 °C 34188.4 hPa SE 7.6 km/h 10.3 km/h 96 % 0 mm
01:26 -17.7 °C -18.1 °C 34188.4 hPa Calm   2.6 km/h 95 % 0 mm
01:32 -17.7 °C -18.1 °C 34188.4 hPa SE 5.1 km/h 5.1 km/h 96 % 0 mm
01:38 -17.8 °C -18.1 °C 34188.4 hPa SE 2.3 km/h 2.6 km/h 96 % 0 mm
01:44 -17.9 °C -18.3 °C 34188.4 hPa Calm     95 % 0 mm
01:50 -17.9 °C -18.2 °C 34188.4 hPa Calm     96 % 0 mm
01:56 -17.9 °C -18.3 °C 34188.4 hPa Calm     96 % 0 mm
02:02 -17.9 °C -18.3 °C 34188.4 hPa ESE 2.3 km/h 2.6 km/h 96 % 0 mm
02:08 -17.9 °C -18.3 °C 34188.4 hPa Calm   5.1 km/h 96 % 0 mm
02:14 -18 °C -18.3 °C 34188.4 hPa Calm   2.6 km/h 96 % 0 mm
02:20 -18 °C -18.3 °C 34188.4 hPa Calm     96 % 0 mm
02:26 -18 °C -18.3 °C 34188.4 hPa Calm   2.6 km/h 96 % 0 mm
02:32 -18 °C -18.3 °C 34198.6 hPa Calm   2.6 km/h 96 % 0 mm
02:38 -18 °C -18.2 °C 34198.6 hPa Calm     97 % 0 mm
02:44 -18 °C -18.2 °C 34198.6 hPa Calm     97 % 0 mm
02:50 -18.1 °C -18.4 °C 34198.6 hPa Calm     96 % 0 mm
02:56 -18.2 °C -18.6 °C 34198.6 hPa Calm   2.6 km/h 96 % 0 mm
03:02 -18.2 °C -18.6 °C 34198.6 hPa Calm   2.6 km/h 96 % 0 mm
03:08 -18.2 °C -18.6 °C 34198.6 hPa Calm   2.6 km/h 96 % 0 mm
03:14 -18.2 °C -18.4 °C 34198.6 hPa Calm     97 % 0 mm
03:20 -18.2 °C -18.4 °C 34198.6 hPa Calm     97 % 0 mm
03:26 -18.3 °C -18.7 °C 34198.6 hPa Calm     96 % 0 mm
03:32 -18.4 °C -18.7 °C 34198.6 hPa Calm     96 % 0 mm
03:38 -18.4 °C -18.6 °C 34198.6 hPa Calm     97 % 0 mm
03:44 -18.3 °C -18.5 °C 34198.6 hPa Calm     97 % 0 mm
03:50 -18.3 °C -18.6 °C 34198.6 hPa Calm     97 % 0 mm
03:57 -18.4 °C -18.6 °C 34198.6 hPa Calm     97 % 0 mm
04:03 -18.4 °C -18.6 °C 34198.6 hPa Calm     97 % 0 mm
04:09 -18.4 °C -18.6 °C 34198.6 hPa Calm     97 % 0 mm
04:15 -18.3 °C -18.6 °C 34198.6 hPa Calm     97 % 0 mm
04:21 -18.2 °C -18.4 °C 34198.6 hPa Calm     97 % 0 mm
04:27 -18.2 °C -18.4 °C 34198.6 hPa Calm     97 % 0 mm
04:33 -18.3 °C -18.5 °C 34198.6 hPa Calm     97 % 0 mm
04:39 -18.2 °C -18.4 °C 34198.6 hPa Calm     97 % 0 mm
04:45 -18 °C -18.2 °C 34198.6 hPa Calm     97 % 0 mm
04:51 -18.1 °C -18.3 °C 34198.6 hPa Calm   2.6 km/h 97 % 0 mm
04:57 -18.2 °C -18.4 °C 34198.6 hPa Calm     97 % 0 mm
05:03 -18.4 °C -18.7 °C 34198.6 hPa Calm     96 % 0 mm
05:09 -18.5 °C -18.8 °C 34212.1 hPa Calm     96 % 0 mm
05:15 -18.7 °C -19 °C 34212.1 hPa Calm     96 % 0 mm
05:21 -18.6 °C -18.8 °C 34212.1 hPa Calm     97 % 0 mm
05:27 -18.7 °C -19.1 °C 34212.1 hPa Calm     96 % 0 mm
05:33 -18.8 °C -19.1 °C 34212.1 hPa Calm     96 % 0 mm
05:39 -18.8 °C -19.2 °C 34212.1 hPa Calm   2.6 km/h 96 % 0 mm
05:45 -18.9 °C -19.3 °C 34212.1 hPa Calm   2.6 km/h 96 % 0 mm
05:51 -18.9 °C -19.2 °C 34212.1 hPa Calm   2.6 km/h 97 % 0 mm
05:57 -19 °C -19.3 °C 34212.1 hPa Calm     96 % 0 mm
06:03 -19.1 °C -19.4 °C 34212.1 hPa Calm   2.6 km/h 96 % 0 mm
06:10 -19.1 °C -19.4 °C 34212.1 hPa Calm   2.6 km/h 96 % 0 mm
06:16 -19.2 °C -19.5 °C 34212.1 hPa Calm   2.6 km/h 96 % 0 mm
06:22 -19.2 °C -19.4 °C 34212.1 hPa Calm   2.6 km/h 97 % 0 mm
06:28 -19.3 °C -19.5 °C 34212.1 hPa SSE 2.3 km/h 2.6 km/h 97 % 0 mm
06:34 -19.2 °C -19.4 °C 34212.1 hPa SSE 2.3 km/h 2.6 km/h 97 % 0 mm
06:40 -19.2 °C -19.4 °C 34212.1 hPa Calm   2.6 km/h 97 % 0 mm
06:46 -19.2 °C -19.4 °C 34212.1 hPa Calm   2.6 km/h 97 % 0 mm
06:52 -19.2 °C -19.4 °C 34212.1 hPa Calm   2.6 km/h 97 % 0 mm
06:58 -19.2 °C -19.4 °C 34222.3 hPa Calm   2.6 km/h 97 % 0 mm
07:04 -19.2 °C -19.4 °C 34222.3 hPa ESE 2.3 km/h 2.6 km/h 97 % 0 mm
07:10 -19.2 °C -19.4 °C 34222.3 hPa Calm   2.6 km/h 97 % 0 mm
07:16 -19.2 °C -19.4 °C 34222.3 hPa Calm   2.6 km/h 97 % 0 mm
07:22 -19.2 °C -19.4 °C 34222.3 hPa Calm     97 % 0 mm
07:28 -19.2 °C -19.4 °C 34222.3 hPa Calm   2.6 km/h 97 % 0 mm
07:34 -19.2 °C -19.4 °C 34222.3 hPa Calm   2.6 km/h 97 % 0 mm
07:40 -19.2 °C -19.4 °C 34222.3 hPa Calm     97 % 0 mm
07:46 -19.2 °C -19.4 °C 34222.3 hPa Calm     97 % 0 mm
07:52 -19.2 °C -19.4 °C 34222.3 hPa Calm     97 % 0 mm
07:58 -19.2 °C -19.4 °C 34222.3 hPa Calm   2.6 km/h 97 % 0 mm
08:04 -19.2 °C -19.4 °C 34235.8 hPa Calm   5.1 km/h 97 % 0 mm
08:10 -19.2 °C -19.4 °C 34222.3 hPa SSE 2.3 km/h 2.6 km/h 97 % 0 mm
08:16 -19.2 °C -19.4 °C 34222.3 hPa SSE 2.3 km/h 2.6 km/h 97 % 0 mm
08:22 -19.2 °C -19.4 °C 34222.3 hPa Calm   2.6 km/h 97 % 0 mm
08:28 -19.2 °C -19.4 °C 34222.3 hPa Calm   2.6 km/h 97 % 0 mm
08:34 -19.2 °C -19.4 °C 34222.3 hPa SSW 2.3 km/h 2.6 km/h 97 % 0 mm
08:40 -19.2 °C -19.4 °C 34235.8 hPa Calm     97 % 0 mm
08:46 -19.2 °C -19.4 °C 34235.8 hPa Calm   2.6 km/h 97 % 0 mm
08:52 -19.1 °C -19.3 °C 34235.8 hPa Calm     97 % 0 mm
08:58 -19.1 °C -19.3 °C 34235.8 hPa Calm     97 % 0 mm
09:04 -19.1 °C -19.3 °C 34246 hPa Calm     97 % 0 mm
09:10 -19 °C -19.2 °C 34246 hPa Calm     97 % 0 mm
09:16 -19 °C -19.2 °C 34246 hPa SSE 2.3 km/h 2.6 km/h 97 % 0 mm
09:22 -19 °C -19.2 °C 34246 hPa Calm     97 % 0 mm
09:28 -18.9 °C -19.2 °C 34246 hPa Calm   2.6 km/h 97 % 0 mm
09:34 -18.9 °C -19.1 °C 34246 hPa Calm   2.6 km/h 97 % 0 mm
09:40 -18.8 °C -19 °C 34246 hPa Calm     97 % 0 mm
09:46 -18.8 °C -19 °C 34246 hPa Calm   2.6 km/h 97 % 0 mm
09:52 -18.7 °C -18.9 °C 34256.2 hPa Calm     97 % 0 mm
09:58 -18.6 °C -18.8 °C 34256.2 hPa Calm     97 % 0 mm
10:04 -18.5 °C -18.7 °C 34256.2 hPa Calm   2.6 km/h 97 % 0 mm
10:10 -18.5 °C -18.7 °C 34256.2 hPa Calm   2.6 km/h 97 % 0 mm
10:17 -18.4 °C -18.7 °C 34256.2 hPa Calm   2.6 km/h 97 % 0 mm
10:23 -18.4 °C -18.6 °C 34256.2 hPa Calm   2.6 km/h 97 % 0 mm
10:29 -18.3 °C -18.5 °C 34256.2 hPa South 2.3 km/h 2.6 km/h 97 % 0 mm
10:35 -18.2 °C -18.4 °C 34256.2 hPa Calm   2.6 km/h 97 % 0 mm
10:41 -18.2 °C -18.4 °C 34256.2 hPa Calm     97 % 0 mm
10:47 -18.1 °C -18.3 °C 34256.2 hPa Calm   5.1 km/h 97 % 0 mm
10:53 -18 °C -18.2 °C 34256.2 hPa Calm   5.1 km/h 97 % 0 mm
10:59 -18 °C -18.2 °C 34256.2 hPa Calm   2.6 km/h 97 % 0 mm
11:05 -17.9 °C -18.2 °C 34256.2 hPa SSW 2.3 km/h 5.1 km/h 97 % 0 mm
11:11 -17.9 °C -18.2 °C 34256.2 hPa SSE 5.1 km/h 5.1 km/h 97 % 0 mm
11:17 -17.9 °C -18.1 °C 34256.2 hPa South 2.3 km/h 2.6 km/h 97 % 0 mm
11:23 -17.7 °C -17.9 °C 34256.2 hPa Calm   2.6 km/h 97 % 0 mm
11:29 -17.6 °C -17.8 °C 34256.2 hPa SSW 5.1 km/h 5.1 km/h 97 % 0 mm
11:35 -17.6 °C -17.8 °C 34256.2 hPa Calm   5.1 km/h 97 % 0 mm
11:41 -17.6 °C -17.8 °C 34256.2 hPa SSE 2.3 km/h 7.7 km/h 97 % 0 mm
11:47 -17.6 °C -17.8 °C 34256.2 hPa South 7.6 km/h 10.3 km/h 97 % 0 mm
11:53 -17.5 °C -17.7 °C 34256.2 hPa SSW 10.3 km/h 10.3 km/h 97 % 0 mm
11:59 -17.4 °C -17.6 °C 34256.2 hPa SSE 5.1 km/h 5.1 km/h 97 % 0 mm
12:05 -17.3 °C -17.5 °C 34256.2 hPa SSW 5.1 km/h 5.1 km/h 97 % 0 mm
12:11 -17.2 °C -17.3 °C 34256.2 hPa SSW 10.3 km/h 10.3 km/h 98 % 0 mm
12:17 -17.1 °C -17.3 °C 34256.2 hPa SW 7.6 km/h 10.3 km/h 97 % 0 mm
12:23 -17.1 °C -17.3 °C 34256.2 hPa Calm   5.1 km/h 97 % 0 mm
12:29 -16.9 °C -17.1 °C 34256.2 hPa SW 5.1 km/h 5.1 km/h 97 % 0 mm
12:35 -16.7 °C -16.9 °C 34256.2 hPa WSW 5.1 km/h 5.1 km/h 98 % 0 mm
12:41 -16.6 °C -16.7 °C 34256.2 hPa SW 5.1 km/h 5.1 km/h 98 % 7.62 mm
12:47 -16.3 °C -16.4 °C 34246 hPa SW 2.3 km/h 5.1 km/h 98 % 7.62 mm
12:53 -16.1 °C -16.3 °C 34246 hPa SSW 2.3 km/h 12.9 km/h 98 % 7.62 mm
12:59 -15.9 °C -16.2 °C 34235.8 hPa WSW 5.1 km/h 10.3 km/h 97 % 7.62 mm
13:05 -15.8 °C -16.1 °C 34235.8 hPa Calm   10.3 km/h 96 % 7.62 mm
13:11 -15.7 °C -16.3 °C 34235.8 hPa WSW 10.3 km/h 15.6 km/h 93 % 7.62 mm
13:17 -15.6 °C -16.2 °C 34235.8 hPa WSW 10.3 km/h 10.3 km/h 92 % 7.62 mm
13:23 -15.6 °C -16.7 °C 34235.8 hPa SW 2.3 km/h 20.8 km/h 87 % 7.62 mm
13:29 -15.4 °C -16.5 °C 34235.8 hPa SE 2.3 km/h 12.9 km/h 87 % 7.62 mm
13:35 -15.3 °C -16.4 °C 34235.8 hPa SW 5.1 km/h 10.3 km/h 86 % 7.62 mm
13:41 -15.1 °C -16.2 °C 34235.8 hPa South 7.6 km/h 15.6 km/h 87 % 0 mm
13:47 -15.1 °C -16.1 °C 34222.3 hPa SW 12.7 km/h 18.2 km/h 88 % 0 mm
13:53 -15.1 °C -16.3 °C 34222.3 hPa WSW 12.7 km/h 18.2 km/h 86 % 0 mm
13:59 -14.9 °C -16.8 °C 34222.3 hPa NW 5.1 km/h 15.6 km/h 79 % 0 mm
14:05 -14.8 °C -16.7 °C 34222.3 hPa West 17.9 km/h 18.2 km/h 79 % 0 mm
14:11 -14.9 °C -16.3 °C 34222.3 hPa WSW 12.7 km/h 20.8 km/h 84 % 0 mm
14:17 -14.9 °C -16.5 °C 34222.3 hPa WNW 12.7 km/h 25.9 km/h 82 % 0 mm
14:23 -14.8 °C -17.2 °C 34222.3 hPa NW 12.7 km/h 25.9 km/h 74 % 0 mm
14:29 -14.8 °C -17.1 °C 34222.3 hPa WNW 15.6 km/h 28.5 km/h 75 % 0 mm
14:35 -14.8 °C -17.1 °C 34222.3 hPa WNW 15.6 km/h 31.1 km/h 75 % 0 mm
14:41 -14.8 °C -17.1 °C 34222.3 hPa West 12.7 km/h 15.6 km/h 75 % 0 mm
14:47 -14.9 °C -17.3 °C 34222.3 hPa Calm   18.2 km/h 74 % 0 mm
14:53 -14.9 °C -17.2 °C 34222.3 hPa West 5.1 km/h 12.9 km/h 75 % 0 mm
14:59 -14.9 °C -17.1 °C 34222.3 hPa West 5.1 km/h 12.9 km/h 76 % 0 mm
15:05 -14.9 °C -17.1 °C 34222.3 hPa WNW 7.6 km/h 20.8 km/h 76 % 0 mm
15:12 -14.9 °C -17.4 °C 34222.3 hPa WNW 12.7 km/h 18.2 km/h 72 % 0 mm
15:18 -14.9 °C -17.5 °C 34222.3 hPa WNW 7.6 km/h 18.2 km/h 72 % 0 mm
15:23 -14.9 °C -17.5 °C 34222.3 hPa West 7.6 km/h 15.6 km/h 72 % 0 mm
15:30 -15.1 °C -16.8 °C 34222.3 hPa West 15.6 km/h 20.8 km/h 80 % 0 mm
15:36 -15.3 °C -16.4 °C 34222.3 hPa WSW 17.9 km/h 23.3 km/h 87 % 0 mm
15:42 -15.4 °C -16.4 °C 34235.8 hPa WSW 7.6 km/h 18.2 km/h 88 % 0 mm
15:48 -15.4 °C -16.4 °C 34222.3 hPa West 10.3 km/h 18.2 km/h 88 % 0 mm
15:54 -15.4 °C -16.4 °C 34222.3 hPa West 7.6 km/h 18.2 km/h 88 % 0 mm
16:00 -15.4 °C -16.4 °C 34235.8 hPa SW 17.9 km/h 20.8 km/h 88 % 0 mm
16:06 -15.4 °C -16.4 °C 34235.8 hPa West 5.1 km/h 12.9 km/h 89 % 0 mm
16:12 -15.5 °C -16.4 °C 34235.8 hPa West 10.3 km/h 20.8 km/h 89 % 0 mm
16:18 -15.5 °C -16.4 °C 34235.8 hPa WNW 23 km/h 23.3 km/h 89 % 0 mm
16:24 -15.5 °C -16.3 °C 34235.8 hPa WSW 5.1 km/h 15.6 km/h 90 % 0 mm
16:30 -15.6 °C -16.4 °C 34235.8 hPa WSW 12.7 km/h 15.6 km/h 90 % 0 mm
16:36 -15.5 °C -16.3 °C 34235.8 hPa WSW 10.3 km/h 20.8 km/h 90 % 0 mm
16:42 -15.5 °C -16.3 °C 34235.8 hPa WSW 7.6 km/h 15.6 km/h 90 % 0 mm
16:48 -15.4 °C -16.3 °C 34235.8 hPa WSW 12.7 km/h 20.8 km/h 90 % 0 mm
16:54 -15.4 °C -16.4 °C 34222.3 hPa WSW 17.9 km/h 20.8 km/h 89 % 0 mm
17:00 -15.4 °C -16.4 °C 34222.3 hPa SW 12.7 km/h 20.8 km/h 89 % 0 mm
17:06 -15.4 °C -16.3 °C 34222.3 hPa WSW 7.6 km/h 18.2 km/h 90 % 0 mm
17:12 -15.4 °C -16.3 °C 34222.3 hPa West 2.3 km/h 10.3 km/h 90 % 0 mm
17:18 -15.4 °C -16.3 °C 34222.3 hPa West 5.1 km/h 18.2 km/h 90 % 0 mm
17:24 -15.4 °C -16.3 °C 34222.3 hPa West 17.9 km/h 18.2 km/h 90 % 0 mm
17:30 -15.4 °C -16.3 °C 34222.3 hPa West 10.3 km/h 20.8 km/h 90 % 0 mm
17:36 -15.4 °C -16.3 °C 34222.3 hPa WSW 10.3 km/h 20.8 km/h 90 % 0 mm
17:42 -15.4 °C -16.3 °C 34222.3 hPa West 5.1 km/h 15.6 km/h 90 % 0 mm
17:48 -15.4 °C -16.3 °C 34222.3 hPa WSW 12.7 km/h 15.6 km/h 90 % 0 mm
17:54 -15.5 °C -16.2 °C 34222.3 hPa West 5.1 km/h 18.2 km/h 91 % 0 mm
18:00 -15.5 °C -16.2 °C 34222.3 hPa SW 5.1 km/h 12.9 km/h 91 % 0 mm
18:06 -15.5 °C -16.3 °C 34235.8 hPa WSW 5.1 km/h 15.6 km/h 90 % 0 mm
18:12 -15.6 °C -16.4 °C 34235.8 hPa WSW 5.1 km/h 5.1 km/h 90 % 0 mm
18:18 -15.6 °C -16.4 °C 34235.8 hPa WSW 5.1 km/h 12.9 km/h 90 % 0 mm
18:24 -15.6 °C -16.5 °C 34235.8 hPa West 5.1 km/h 10.3 km/h 89 % 0 mm
18:30 -15.6 °C -16.5 °C 34235.8 hPa West 7.6 km/h 7.7 km/h 89 % 0 mm
18:36 -15.6 °C -16.5 °C 34235.8 hPa West 5.1 km/h 10.3 km/h 89 % 0 mm
18:42 -15.6 °C -16.5 °C 34235.8 hPa West 2.3 km/h 5.1 km/h 89 % 0 mm
18:48 -15.6 °C -16.6 °C 34235.8 hPa WSW 2.3 km/h 10.3 km/h 88 % 0 mm
18:54 -15.6 °C -16.6 °C 34246 hPa West 2.3 km/h 7.7 km/h 88 % 0 mm
19:00 -15.6 °C -16.6 °C 34246 hPa West 2.3 km/h 10.3 km/h 88 % 0 mm
19:06 -15.6 °C -16.6 °C 34246 hPa NW 2.3 km/h 7.7 km/h 88 % 0 mm
19:12 -15.6 °C -16.6 °C 34246 hPa WNW 2.3 km/h 10.3 km/h 88 % 0 mm
19:18 -15.6 °C -16.7 °C 34256.2 hPa Calm   5.1 km/h 87 % 0 mm
19:24 -15.6 °C -16.6 °C 34256.2 hPa Calm     88 % 0 mm
19:30 -15.6 °C -16.6 °C 34246 hPa Calm   2.6 km/h 88 % 0 mm
19:36 -15.7 °C -16.7 °C 34256.2 hPa Calm   2.6 km/h 88 % 0 mm
19:42 -15.7 °C -16.7 °C 34256.2 hPa West 5.1 km/h 5.1 km/h 88 % 0 mm
19:48 -15.6 °C -16.7 °C 34246 hPa WSW 5.1 km/h 7.7 km/h 87 % 0 mm
19:54 -15.6 °C -16.7 °C 34246 hPa WNW 7.6 km/h 10.3 km/h 87 % 0 mm
20:00 -15.6 °C -16.7 °C 34256.2 hPa WNW 10.3 km/h 18.2 km/h 87 % 0 mm
20:06 -15.6 °C -16.7 °C 34246 hPa WNW 10.3 km/h 28.5 km/h 87 % 0 mm
20:12 -15.6 °C -16.7 °C 34246 hPa West 7.6 km/h 20.8 km/h 87 % 7.62 mm
20:18 -15.6 °C -16.7 °C 34246 hPa NW 5.1 km/h 23.3 km/h 87 % 7.62 mm
20:24 -15.6 °C -16.6 °C 34256.2 hPa NW 10.3 km/h 23.3 km/h 88 % 7.62 mm
20:30 -15.6 °C -16.6 °C 34256.2 hPa NW 10.3 km/h 33.6 km/h 88 % 7.62 mm
20:36 -15.7 °C -16.7 °C 34256.2 hPa NNW 15.6 km/h 23.3 km/h 88 % 7.62 mm
20:42 -15.7 °C -16.6 °C 34256.2 hPa NNW 10.3 km/h 28.5 km/h 89 % 7.62 mm
20:48 -15.8 °C -16.7 °C 34256.2 hPa NNW 12.7 km/h 31.1 km/h 89 % 12.7 mm
20:54 -15.9 °C -16.7 °C 34256.2 hPa NW 7.6 km/h 25.9 km/h 90 % 12.7 mm
21:00 -16 °C -16.8 °C 34256.2 hPa NNW 23 km/h 23.3 km/h 90 % 12.7 mm
21:06 -16.1 °C -16.8 °C 34256.2 hPa NNW 5.1 km/h 12.9 km/h 91 % 12.7 mm
21:12 -16.2 °C -16.9 °C 34256.2 hPa NNW 7.6 km/h 12.9 km/h 91 % 7.62 mm
21:18 -16.2 °C -16.8 °C 34256.2 hPa NNW 10.3 km/h 10.3 km/h 92 % 7.62 mm
21:24 -16.2 °C -16.8 °C 34256.2 hPa WNW 7.6 km/h 12.9 km/h 92 % 7.62 mm
21:30 -16.2 °C -16.8 °C 34256.2 hPa NW 7.6 km/h 12.9 km/h 92 % 7.62 mm
21:36 -16.2 °C -16.8 °C 34256.2 hPa WNW 5.1 km/h 15.6 km/h 92 % 7.62 mm
21:42 -16.2 °C -16.8 °C 34256.2 hPa WNW 7.6 km/h 12.9 km/h 92 % 7.62 mm
21:48 -16.2 °C -16.9 °C 34269.7 hPa West 5.1 km/h 18.2 km/h 92 % 0 mm
21:54 -16.2 °C -16.8 °C 34269.7 hPa NW 10.3 km/h 20.8 km/h 92 % 0 mm
22:00 -16.2 °C -16.8 °C 34269.7 hPa WNW 5.1 km/h 15.6 km/h 92 % 0 mm
22:06 -16.2 °C -16.9 °C 34269.7 hPa WNW 12.7 km/h 15.6 km/h 92 % 0 mm
22:12 -16.2 °C -16.9 °C 34269.7 hPa West 15.6 km/h 25.9 km/h 92 % 0 mm
22:18 -16.2 °C -16.9 °C 34269.7 hPa NNW 15.6 km/h 20.8 km/h 92 % 0 mm
22:24 -16.2 °C -16.8 °C 34269.7 hPa WNW 15.6 km/h 25.9 km/h 92 % 0 mm
22:30 -16.2 °C -16.9 °C 34269.7 hPa NW 10.3 km/h 28.5 km/h 92 % 0 mm
22:36 -16.2 °C -16.9 °C 34269.7 hPa NW 5.1 km/h 23.3 km/h 92 % 0 mm
22:42 -16.2 °C -16.9 °C 34269.7 hPa WNW 15.6 km/h 20.8 km/h 92 % 0 mm
22:48 -16.3 °C -16.9 °C 34256.2 hPa WNW 10.3 km/h 23.3 km/h 92 % 0 mm
22:54 -16.3 °C -16.9 °C 34256.2 hPa WNW 12.7 km/h 20.8 km/h 92 % 0 mm
23:00 -16.2 °C -16.9 °C 34256.2 hPa WNW 10.3 km/h 25.9 km/h 92 % 0 mm
23:06 -16.2 °C -16.8 °C 34256.2 hPa NW 7.6 km/h 15.6 km/h 92 % 0 mm
23:12 -16.2 °C -16.8 °C 34256.2 hPa WNW 12.7 km/h 18.2 km/h 92 % 0 mm
23:18 -16.2 °C -16.8 °C 34256.2 hPa WNW 10.3 km/h 15.6 km/h 92 % 0 mm
23:24 -16.2 °C -16.8 °C 34256.2 hPa West 12.7 km/h 18.2 km/h 92 % 0 mm
23:30 -16.1 °C -16.8 °C 34256.2 hPa West 7.6 km/h 12.9 km/h 92 % 0 mm
23:36 -16.2 °C -16.8 °C 34256.2 hPa WNW 10.3 km/h 15.6 km/h 92 % 0 mm
23:42 -16.2 °C -16.8 °C 34256.2 hPa West 10.3 km/h 18.2 km/h 92 % 0 mm
23:48 -16.2 °C -16.8 °C 34256.2 hPa WSW 10.3 km/h 18.2 km/h 92 % 0 mm
23:54 -16.2 °C -16.9 °C 34256.2 hPa NW 10.3 km/h 15.6 km/h 92 % 0 mm
Meteo18
Compliments of Weather Underground - 4 mb

Script developed by  Jim McMurry - jmcmurry@mwt.net Adapted for the template by  Wim van der Kuil - Leuven-Template.eu

You find our weather info also at:

European Weather Network

Weather Underground

Equipment we use:

Weather-station
Davis Vue

Weather-program
Meteobridge

Weather-server
Raspberry PI 2 B+

Provider
1 and 1

Davis Vue

Meteobridge

Raspberry PI 2 B+

1 and 1